createdAt,value
2018-09-02T00:01:19.907Z,13.95
2018-09-02T00:03:50.274Z,13.89
2018-09-02T00:06:19.654Z,13.83
2018-09-02T00:08:49.593Z,13.95
2018-09-02T00:11:19.714Z,13.97
2018-09-02T00:13:49.164Z,14.01
2018-09-02T00:16:18.574Z,13.94
2018-09-02T00:18:47.876Z,13.90
2018-09-02T00:21:17.893Z,13.91
2018-09-02T00:23:47.362Z,13.90
2018-09-02T00:26:16.877Z,13.86
2018-09-02T00:28:47.786Z,13.86
2018-09-02T00:31:17.360Z,13.86
2018-09-02T00:33:47.024Z,13.91
2018-09-02T00:36:16.277Z,13.95
2018-09-02T00:38:45.810Z,13.97
2018-09-02T00:41:15.192Z,13.99
2018-09-02T00:43:45.957Z,13.99
2018-09-02T00:46:16.332Z,13.92
2018-09-02T00:48:45.715Z,13.89
2018-09-02T00:51:15.136Z,13.87
2018-09-02T00:53:44.925Z,13.95
2018-09-02T00:56:14.353Z,13.98
2018-09-02T00:58:43.880Z,13.97
2018-09-02T01:01:13.711Z,13.99
2018-09-02T01:03:43.147Z,13.94
2018-09-02T01:06:13.928Z,13.91
2018-09-02T01:08:43.811Z,13.98
2018-09-02T01:11:14.493Z,13.96
2018-09-02T01:13:44.319Z,13.98
2018-09-02T01:16:13.781Z,13.98
2018-09-02T01:18:43.258Z,13.97
2018-09-02T01:21:12.966Z,13.94
2018-09-02T01:23:42.275Z,13.97
2018-09-02T01:26:12.126Z,13.99
2018-09-02T01:28:41.502Z,13.93
2018-09-02T01:31:12.613Z,13.88
2018-09-02T01:33:42.621Z,13.79
2018-09-02T01:36:11.954Z,13.81
2018-09-02T01:38:41.412Z,13.77
2018-09-02T01:41:12.068Z,13.80
2018-09-02T01:43:41.394Z,13.70
2018-09-02T01:46:11.847Z,13.75
2018-09-02T01:48:41.501Z,13.88
2018-09-02T01:51:10.989Z,13.91
2018-09-02T01:53:41.039Z,13.90
2018-09-02T01:56:10.691Z,13.90
2018-09-02T01:58:40.608Z,13.90
2018-09-02T02:01:10.626Z,13.88
2018-09-02T02:03:40.084Z,13.89
2018-09-02T02:06:09.974Z,13.82
2018-09-02T02:08:41.423Z,13.87
2018-09-02T02:11:11.438Z,13.91
2018-09-02T02:13:40.931Z,13.94
2018-09-02T02:16:11.405Z,13.90
2018-09-02T02:18:40.871Z,13.86
2018-09-02T02:21:10.559Z,13.78
2018-09-02T02:23:40.376Z,13.70
2018-09-02T02:26:09.814Z,13.79
2018-09-02T02:28:39.239Z,13.82
2018-09-02T02:31:10.294Z,13.83
2018-09-02T02:33:39.756Z,13.88
2018-09-02T02:36:10.223Z,13.86
2018-09-02T02:38:39.586Z,13.86
2018-09-02T02:41:08.862Z,13.91
2018-09-02T02:43:38.345Z,13.90
2018-09-02T02:46:07.824Z,13.80
2018-09-02T02:48:37.297Z,13.80
2018-09-02T02:51:07.678Z,13.72
2018-09-02T02:53:37.623Z,13.68
2018-09-02T02:56:08.081Z,13.73
2018-09-02T02:58:37.517Z,13.77
2018-09-02T03:01:06.943Z,13.70
2018-09-02T03:03:36.306Z,13.75
2018-09-02T03:06:05.628Z,13.78
2018-09-02T03:08:35.085Z,13.79
2018-09-02T03:11:04.408Z,13.79
2018-09-02T03:13:33.663Z,13.83
2018-09-02T03:16:04.240Z,13.79
2018-09-02T03:18:33.541Z,13.78
2018-09-02T03:21:02.840Z,13.70
2018-09-02T03:23:32.305Z,13.74
2018-09-02T03:26:01.641Z,13.78
2018-09-02T03:28:32.767Z,13.78
2018-09-02T03:31:02.586Z,13.79
2018-09-02T03:33:31.727Z,13.82
2018-09-02T03:36:01.214Z,13.80
2018-09-02T03:38:30.651Z,13.78
2018-09-02T03:40:59.955Z,13.66
2018-09-02T03:43:29.409Z,13.63
2018-09-02T03:45:58.602Z,13.71
2018-09-02T03:48:28.435Z,13.77
2018-09-02T03:50:58.811Z,13.79
2018-09-02T03:53:28.106Z,13.79
2018-09-02T03:55:57.540Z,13.79
2018-09-02T03:58:27.898Z,13.79
2018-09-02T04:00:57.239Z,13.80
2018-09-02T04:03:26.694Z,13.79
2018-09-02T04:05:56.209Z,13.78
2018-09-02T04:08:26.084Z,13.67
2018-09-02T04:10:55.692Z,13.63
2018-09-02T04:13:25.783Z,13.62
2018-09-02T04:15:55.949Z,13.67
2018-09-02T04:18:26.184Z,13.70
2018-09-02T04:20:55.912Z,13.68
2018-09-02T04:23:25.448Z,13.61
2018-09-02T04:25:55.046Z,13.61
2018-09-02T04:28:25.819Z,13.57
2018-09-02T04:30:56.318Z,13.49
2018-09-02T04:33:26.502Z,13.50
2018-09-02T04:35:56.629Z,13.50
2018-09-02T04:38:27.816Z,13.54
2018-09-02T04:40:57.615Z,13.53
2018-09-02T04:43:27.147Z,13.49
2018-09-02T04:45:56.749Z,13.49
2018-09-02T04:48:26.772Z,13.44
2018-09-02T04:50:56.684Z,13.43
2018-09-02T04:53:26.574Z,13.38
2018-09-02T04:55:57.707Z,13.37
2018-09-02T04:58:27.057Z,13.36
2018-09-02T05:00:56.893Z,13.39
2018-09-02T05:03:26.701Z,13.43
2018-09-02T05:05:57.631Z,13.38
2018-09-02T05:08:28.039Z,13.45
2018-09-02T05:10:59.318Z,13.39
2018-09-02T05:13:31.274Z,13.43
2018-09-02T05:16:01.860Z,13.38
2018-09-02T05:18:31.198Z,13.32
2018-09-02T05:21:00.770Z,13.35
2018-09-02T05:23:30.191Z,13.43
2018-09-02T05:25:59.657Z,13.53
2018-09-02T05:28:29.208Z,13.51
2018-09-02T05:30:59.227Z,13.47
2018-09-02T05:33:29.178Z,13.51
2018-09-02T05:35:58.551Z,13.43
2018-09-02T05:38:27.846Z,13.44
2018-09-02T05:40:57.041Z,13.45
2018-09-02T05:43:26.469Z,13.44
2018-09-02T05:45:55.746Z,13.39
2018-09-02T05:48:25.248Z,13.46
2018-09-02T05:50:54.569Z,13.42
2018-09-02T05:53:24.061Z,13.36
2018-09-02T05:55:54.185Z,13.26
2018-09-02T05:58:25.064Z,13.34
2018-09-02T06:00:54.781Z,13.31
2018-09-02T06:03:24.167Z,13.28
2018-09-02T06:05:53.718Z,13.41
2018-09-02T06:08:23.097Z,13.46
2018-09-02T06:10:52.703Z,13.47
2018-09-02T06:13:23.003Z,13.49
2018-09-02T06:15:53.408Z,13.53
2018-09-02T06:18:23.011Z,13.55
2018-09-02T06:20:52.766Z,13.62
2018-09-02T06:23:22.140Z,13.63
2018-09-02T06:25:51.932Z,13.65
2018-09-02T06:28:21.438Z,13.55
2018-09-02T06:30:51.565Z,13.57
2018-09-02T06:33:21.749Z,13.51
2018-09-02T06:35:51.763Z,13.62
2018-09-02T06:38:21.390Z,13.71
2018-09-02T06:40:51.199Z,13.86
2018-09-02T06:43:21.985Z,13.72
2018-09-02T06:45:51.510Z,13.76
2018-09-02T06:48:21.565Z,13.77
2018-09-02T06:50:50.982Z,13.91
2018-09-02T06:53:20.506Z,13.99
2018-09-02T06:55:50.238Z,14.06
2018-09-02T06:58:19.709Z,14.25
2018-09-02T07:00:49.737Z,14.81
2018-09-02T07:03:19.278Z,15.28
2018-09-02T07:05:48.622Z,15.79
2018-09-02T07:08:18.030Z,15.75
2018-09-02T07:10:47.718Z,15.85
2018-09-02T07:13:19.354Z,15.56
2018-09-02T07:15:49.182Z,15.56
2018-09-02T07:18:18.604Z,15.46
2018-09-02T07:20:48.111Z,15.80
2018-09-02T07:23:18.306Z,16.09
2018-09-02T07:25:47.708Z,16.28
2018-09-02T07:28:17.464Z,16.17
2018-09-02T07:30:48.513Z,16.27
2018-09-02T07:33:18.344Z,16.65
2018-09-02T07:35:48.027Z,16.98
2018-09-02T07:38:17.492Z,16.79
2018-09-02T07:40:47.414Z,16.64
2018-09-02T07:43:16.802Z,16.77
2018-09-02T07:45:47.357Z,16.41
2018-09-02T07:48:17.633Z,16.10
2018-09-02T07:50:48.945Z,16.29
2018-09-02T07:53:18.783Z,15.97
2018-09-02T07:55:48.293Z,15.68
2018-09-02T07:58:17.965Z,15.86
2018-09-02T08:00:47.611Z,16.00
2018-09-02T08:03:17.293Z,16.06
2018-09-02T08:05:46.757Z,15.79
2018-09-02T08:08:16.122Z,15.84
2018-09-02T08:10:46.448Z,15.94
2018-09-02T08:13:17.041Z,15.87
2018-09-02T08:15:46.739Z,15.76
2018-09-02T08:18:16.650Z,15.86
2018-09-02T08:20:46.956Z,15.85
2018-09-02T08:23:18.511Z,15.95
2018-09-02T08:25:48.555Z,16.03
2018-09-02T08:28:18.762Z,16.04
2018-09-02T08:30:49.598Z,16.06
2018-09-02T08:33:19.119Z,15.68
2018-09-02T08:35:50.347Z,15.96
2018-09-02T08:38:21.766Z,16.07
2018-09-02T08:40:52.691Z,16.23
2018-09-02T08:43:23.145Z,16.32
2018-09-02T08:45:53.368Z,16.37
2018-09-02T08:48:23.385Z,16.48
2018-09-02T08:50:53.350Z,16.56
2018-09-02T08:53:23.851Z,16.43
2018-09-02T08:55:54.529Z,16.53
2018-09-02T08:58:24.836Z,16.49
2018-09-02T09:00:54.437Z,16.60
2018-09-02T09:03:24.013Z,16.71
2018-09-02T09:05:53.580Z,16.34
2018-09-02T09:08:24.406Z,16.28
2018-09-02T09:10:55.750Z,16.08
2018-09-02T09:13:26.213Z,16.28
2018-09-02T09:15:56.202Z,16.49
2018-09-02T09:18:25.931Z,16.80
2018-09-02T09:20:55.832Z,16.81
2018-09-02T09:23:24.943Z,16.52
2018-09-02T09:25:55.185Z,16.37
2018-09-02T09:28:24.653Z,16.30
2018-09-02T09:30:54.090Z,16.31
2018-09-02T09:33:23.561Z,16.23
2018-09-02T09:35:53.576Z,16.16
2018-09-02T09:38:23.188Z,16.11
2018-09-02T09:40:52.892Z,16.31
2018-09-02T09:43:23.319Z,16.30
2018-09-02T09:45:52.701Z,16.37
2018-09-02T09:48:22.247Z,16.20
2018-09-02T09:50:51.739Z,16.19
2018-09-02T09:53:21.020Z,16.30
2018-09-02T09:55:50.698Z,16.14
2018-09-02T09:58:30.621Z,16.15
2018-09-02T10:01:01.631Z,16.00
2018-09-02T10:03:31.167Z,15.95
2018-09-02T10:06:01.980Z,16.07
2018-09-02T10:08:31.894Z,16.13
2018-09-02T10:11:01.645Z,16.06
2018-09-02T10:13:31.621Z,15.73
2018-09-02T10:16:00.879Z,15.86
2018-09-02T10:18:30.423Z,15.98
2018-09-02T10:20:59.915Z,15.96
2018-09-02T10:23:29.388Z,15.83
2018-09-02T10:25:59.237Z,15.79
2018-09-02T10:28:28.986Z,15.95
2018-09-02T10:30:59.273Z,15.89
2018-09-02T10:33:28.733Z,15.99
2018-09-02T10:35:58.597Z,15.88
2018-09-02T10:38:28.943Z,15.97
2018-09-02T10:40:58.900Z,16.12
2018-09-02T10:43:28.426Z,16.08
2018-09-02T10:45:58.166Z,16.06
2018-09-02T10:48:28.482Z,15.94
2018-09-02T10:50:58.704Z,15.87
2018-09-02T10:53:28.199Z,15.93
2018-09-02T10:55:58.749Z,15.92
2018-09-02T10:58:28.578Z,16.04
2018-09-02T11:00:58.685Z,16.18
2018-09-02T11:03:28.015Z,16.28
2018-09-02T11:05:57.560Z,16.55
2018-09-02T11:08:27.178Z,16.41
2018-09-02T11:10:56.894Z,16.87
2018-09-02T11:13:27.450Z,16.96
2018-09-02T11:15:57.861Z,17.12
2018-09-02T11:18:29.653Z,17.23
2018-09-02T11:20:59.645Z,17.43
2018-09-02T11:23:29.091Z,17.14
2018-09-02T11:25:58.501Z,17.57
2018-09-02T11:28:30.676Z,17.38
2018-09-02T11:31:00.236Z,17.70
2018-09-02T11:33:29.865Z,17.88
2018-09-02T11:35:59.669Z,17.95
2018-09-02T11:38:29.859Z,17.82
2018-09-02T11:41:00.398Z,17.70
2018-09-02T11:43:30.737Z,17.74
2018-09-02T11:46:00.576Z,17.70
2018-09-02T11:48:30.010Z,17.80
2018-09-02T11:50:59.608Z,17.98
2018-09-02T11:53:29.079Z,18.26
2018-09-02T11:55:58.376Z,18.23
2018-09-02T11:58:28.259Z,18.42
2018-09-02T12:00:57.654Z,18.46
2018-09-02T12:03:27.097Z,17.69
2018-09-02T12:05:56.391Z,18.06
2018-09-02T12:08:25.723Z,18.30
2018-09-02T12:10:55.069Z,18.60
2018-09-02T12:13:24.211Z,18.63
2018-09-02T12:15:53.780Z,18.51
2018-09-02T12:18:23.741Z,18.29
2018-09-02T12:20:53.301Z,18.21
2018-09-02T12:23:22.655Z,18.37
2018-09-02T12:25:52.347Z,18.49
2018-09-02T12:28:22.016Z,18.68
2018-09-02T12:30:54.239Z,18.73
2018-09-02T12:33:23.576Z,18.82
2018-09-02T12:35:53.033Z,19.21
2018-09-02T12:38:22.710Z,19.33
2018-09-02T12:40:52.327Z,18.73
2018-09-02T12:43:22.082Z,18.83
2018-09-02T12:45:51.727Z,19.25
2018-09-02T12:48:21.088Z,19.16
2018-09-02T12:50:50.495Z,19.55
2018-09-02T12:53:19.959Z,19.26
2018-09-02T12:55:50.882Z,19.30
2018-09-02T12:58:21.723Z,19.57
2018-09-02T13:00:51.981Z,19.41
2018-09-02T13:03:22.599Z,19.30
2018-09-02T13:05:51.938Z,19.30
2018-09-02T13:08:21.333Z,19.42
2018-09-02T13:10:50.985Z,19.03
2018-09-02T13:13:20.732Z,18.92
2018-09-02T13:15:50.630Z,18.77
2018-09-02T13:18:20.077Z,18.74
2018-09-02T13:20:49.817Z,18.86
2018-09-02T13:23:19.300Z,18.93
2018-09-02T13:25:48.812Z,18.98
2018-09-02T13:28:18.214Z,19.08
2018-09-02T13:30:48.834Z,19.08
2018-09-02T13:33:18.455Z,19.16
2018-09-02T13:35:48.000Z,19.23
2018-09-02T13:38:17.928Z,19.23
2018-09-02T13:40:47.725Z,19.43
2018-09-02T13:43:17.212Z,19.67
2018-09-02T13:45:46.609Z,19.53
2018-09-02T13:48:16.347Z,19.43
2018-09-02T13:50:46.073Z,19.57
2018-09-02T13:53:15.939Z,19.45
2018-09-02T13:55:45.267Z,19.54
2018-09-02T13:58:14.765Z,19.26
2018-09-02T14:00:44.064Z,19.11
2018-09-02T14:03:13.616Z,19.23
2018-09-02T14:05:43.183Z,19.33
2018-09-02T14:08:12.828Z,19.05
2018-09-02T14:10:42.181Z,19.37
2018-09-02T14:13:11.702Z,19.19
2018-09-02T14:15:45.549Z,18.78
2018-09-02T14:18:15.022Z,18.84
2018-09-02T14:20:44.834Z,19.06
2018-09-02T14:23:15.042Z,19.27
2018-09-02T14:25:44.880Z,19.11
2018-09-02T14:28:14.748Z,18.74
2018-09-02T14:30:44.395Z,18.89
2018-09-02T14:33:16.062Z,19.03
2018-09-02T14:35:45.808Z,18.47
2018-09-02T14:38:16.119Z,18.72
2018-09-02T14:40:46.200Z,18.86
2018-09-02T14:43:16.744Z,19.07
2018-09-02T14:45:46.437Z,19.24
2018-09-02T14:48:15.921Z,19.63
2018-09-02T14:50:45.706Z,19.21
2018-09-02T14:53:15.256Z,19.19
2018-09-02T14:55:45.180Z,19.31
2018-09-02T14:58:15.095Z,19.25
2018-09-02T15:00:44.658Z,18.93
2018-09-02T15:03:14.122Z,18.83
2018-09-02T15:05:43.593Z,18.87
2018-09-02T15:08:12.914Z,18.93
2018-09-02T15:10:42.552Z,19.06
2018-09-02T15:13:11.910Z,18.86
2018-09-02T15:15:41.405Z,18.92
2018-09-02T15:18:10.738Z,18.96
2018-09-02T15:20:40.071Z,19.00
2018-09-02T15:23:09.970Z,18.80
2018-09-02T15:25:39.635Z,18.75
2018-09-02T15:28:08.991Z,18.86
2018-09-02T15:30:39.182Z,18.83
2018-09-02T15:33:08.624Z,19.21
2018-09-02T15:35:39.017Z,19.09
2018-09-02T15:38:08.834Z,19.30
2018-09-02T15:40:38.209Z,19.22
2018-09-02T15:43:07.678Z,19.11
2018-09-02T15:45:37.072Z,18.89
2018-09-02T15:48:06.816Z,18.72
2018-09-02T15:50:36.363Z,18.72
2018-09-02T15:53:05.976Z,18.82
2018-09-02T15:55:35.417Z,18.72
2018-09-02T15:58:04.891Z,18.64
2018-09-02T16:00:34.189Z,18.61
2018-09-02T16:03:03.663Z,18.47
2018-09-02T16:05:33.219Z,18.54
2018-09-02T16:08:03.197Z,18.19
2018-09-02T16:10:32.670Z,18.19
2018-09-02T16:13:02.146Z,17.95
2018-09-02T16:15:31.841Z,18.01
2018-09-02T16:18:01.828Z,18.03
2018-09-02T16:20:34.411Z,17.96
2018-09-02T16:23:04.216Z,18.01
2018-09-02T16:25:34.352Z,18.05
2018-09-02T16:28:04.160Z,17.89
2018-09-02T16:30:33.788Z,17.82
2018-09-02T16:33:03.183Z,17.62
2018-09-02T16:35:32.530Z,17.69
2018-09-02T16:38:02.803Z,17.57
2018-09-02T16:40:33.210Z,17.60
2018-09-02T16:43:03.969Z,17.51
2018-09-02T16:45:33.374Z,17.42
2018-09-02T16:48:02.843Z,17.44
2018-09-02T16:50:32.219Z,17.41
2018-09-02T16:53:01.698Z,17.40
2018-09-02T16:55:31.214Z,17.35
2018-09-02T16:58:00.710Z,17.33
2018-09-02T17:00:30.307Z,17.21
2018-09-02T17:03:00.571Z,17.08
2018-09-02T17:05:30.956Z,17.14
2018-09-02T17:08:00.704Z,17.11
2018-09-02T17:10:41.867Z,17.07
2018-09-02T17:13:11.928Z,16.92
2018-09-02T17:15:43.233Z,16.95
2018-09-02T17:18:16.189Z,16.93
2018-09-02T17:20:48.066Z,16.88
2018-09-02T17:23:17.830Z,16.82
2018-09-02T17:25:48.658Z,16.90
2018-09-02T17:28:21.302Z,16.81
2018-09-02T17:30:50.902Z,16.79
2018-09-02T17:33:20.715Z,16.64
2018-09-02T17:35:51.547Z,16.66
2018-09-02T17:38:21.507Z,16.66
2018-09-02T17:40:52.380Z,16.45
2018-09-02T17:43:22.568Z,16.27
2018-09-02T17:45:53.474Z,16.24
2018-09-02T17:48:26.518Z,16.24
2018-09-02T17:50:59.390Z,16.26
2018-09-02T17:53:30.444Z,16.22
2018-09-02T17:56:00.448Z,16.21
2018-09-02T17:58:31.411Z,16.20
2018-09-02T18:01:03.711Z,16.16
2018-09-02T18:03:34.604Z,16.09
2018-09-02T18:06:06.143Z,16.09
2018-09-02T18:08:36.171Z,16.05
2018-09-02T18:11:07.563Z,16.08
2018-09-02T18:13:38.989Z,16.00
2018-09-02T18:16:09.990Z,15.82
2018-09-02T18:18:40.497Z,15.80
2018-09-02T18:21:10.305Z,15.78
2018-09-02T18:23:39.863Z,15.95
2018-09-02T18:26:09.610Z,15.94
2018-09-02T18:28:42.387Z,15.93
2018-09-02T18:31:12.001Z,15.96
2018-09-02T18:33:41.540Z,15.85
2018-09-02T18:36:11.170Z,15.95
2018-09-02T18:38:42.826Z,15.97
2018-09-02T18:41:12.836Z,15.90
2018-09-02T18:43:42.374Z,15.87
2018-09-02T18:46:12.507Z,15.84
2018-09-02T18:48:43.650Z,15.88
2018-09-02T18:51:13.960Z,15.88
2018-09-02T18:53:45.865Z,15.79
2018-09-02T18:56:15.806Z,15.88
2018-09-02T18:58:46.616Z,15.69
2018-09-02T19:01:16.901Z,15.72
2018-09-02T19:03:46.632Z,15.55
2018-09-02T19:06:18.256Z,15.60
2018-09-02T19:08:48.708Z,15.44
2018-09-02T19:11:18.640Z,15.39
2018-09-02T19:13:48.168Z,15.39
2018-09-02T19:16:18.566Z,15.45
2018-09-02T19:18:48.359Z,15.40
2018-09-02T19:21:19.847Z,15.38
2018-09-02T19:23:51.146Z,15.18
2018-09-02T19:26:24.239Z,15.35
2018-09-02T19:28:54.379Z,15.39
2018-09-02T19:31:24.066Z,15.35
2018-09-02T19:33:53.647Z,15.32
2018-09-02T19:36:23.249Z,15.19
2018-09-02T19:38:53.097Z,15.19
2018-09-02T19:41:23.031Z,15.15
2018-09-02T19:43:55.209Z,15.16
2018-09-02T19:46:25.084Z,15.19
2018-09-02T19:48:55.311Z,15.18
2018-09-02T19:51:25.116Z,15.20
2018-09-02T19:53:55.640Z,15.15
2018-09-02T19:56:25.284Z,15.08
2018-09-02T19:58:55.431Z,15.07
2018-09-02T20:01:27.640Z,15.00
2018-09-02T20:03:59.519Z,15.07
2018-09-02T20:06:29.557Z,15.41
2018-09-02T20:09:03.596Z,15.29
2018-09-02T20:11:33.779Z,15.03
2018-09-02T20:14:06.777Z,15.01
2018-09-02T20:16:36.717Z,15.04
2018-09-02T20:19:06.542Z,14.95
2018-09-02T20:21:37.118Z,15.05
2018-09-02T20:24:06.728Z,15.08
2018-09-02T20:26:37.070Z,15.08
2018-09-02T20:29:06.658Z,15.10
2018-09-02T20:31:36.677Z,15.09
2018-09-02T20:34:08.738Z,15.02
2018-09-02T20:36:38.346Z,14.98
2018-09-02T20:39:09.885Z,15.02
2018-09-02T20:41:39.815Z,14.90
2018-09-02T20:44:09.965Z,14.92
2018-09-02T20:46:39.820Z,14.87
2018-09-02T20:49:09.393Z,14.94
2018-09-02T20:51:39.439Z,14.84
2018-09-02T20:54:10.086Z,14.73
2018-09-02T20:56:39.621Z,14.79
2018-09-02T20:59:09.644Z,14.79
2018-09-02T21:01:39.190Z,14.79
2018-09-02T21:04:09.080Z,14.78
2018-09-02T21:06:38.741Z,14.78
2018-09-02T21:09:12.889Z,14.72
2018-09-02T21:11:42.850Z,14.82
2018-09-02T21:14:12.401Z,14.77
2018-09-02T21:16:42.575Z,14.60
2018-09-02T21:19:13.258Z,14.68
2018-09-02T21:21:42.946Z,14.63
2018-09-02T21:24:12.571Z,14.62
2018-09-02T21:26:42.300Z,14.60
2018-09-02T21:29:11.727Z,14.59
2018-09-02T21:31:42.336Z,14.62
2018-09-02T21:34:12.180Z,14.59
2018-09-02T21:36:45.549Z,14.61
2018-09-02T21:39:15.261Z,14.67
2018-09-02T21:41:44.754Z,14.60
2018-09-02T21:44:14.423Z,14.42
2018-09-02T21:46:43.866Z,14.33
2018-09-02T21:49:13.371Z,14.37
2018-09-02T21:51:44.027Z,14.39
2018-09-02T21:54:13.623Z,14.49
2018-09-02T21:56:43.909Z,14.43
2018-09-02T21:59:14.972Z,14.42
2018-09-02T22:01:45.024Z,14.47
2018-09-02T22:04:15.717Z,14.51
2018-09-02T22:06:45.335Z,14.55
2018-09-02T22:09:16.382Z,14.52
2018-09-02T22:11:47.114Z,14.51
2018-09-02T22:14:16.877Z,14.44
2018-09-02T22:16:46.572Z,14.33
2018-09-02T22:19:16.139Z,14.29
2018-09-02T22:21:46.047Z,14.17
2018-09-02T22:24:16.208Z,14.13
2018-09-02T22:26:45.724Z,14.04
2018-09-02T22:29:14.983Z,14.05
2018-09-02T22:31:44.367Z,14.11
2018-09-02T22:34:14.118Z,14.09
2018-09-02T22:36:45.053Z,14.11
2018-09-02T22:39:14.648Z,14.16
2018-09-02T22:41:44.861Z,14.21
2018-09-02T22:44:14.267Z,14.24
2018-09-02T22:46:43.873Z,14.24
2018-09-02T22:49:13.897Z,14.21
2018-09-02T22:51:43.599Z,14.10
2018-09-02T22:54:12.960Z,14.05
2018-09-02T22:56:42.417Z,14.10
2018-09-02T22:59:12.121Z,14.15
2018-09-02T23:01:41.469Z,14.25
2018-09-02T23:04:10.911Z,14.32
2018-09-02T23:06:42.940Z,14.40
2018-09-02T23:09:12.727Z,14.43
2018-09-02T23:11:42.925Z,14.46
2018-09-02T23:14:12.045Z,14.41
2018-09-02T23:16:41.410Z,14.38
2018-09-02T23:19:11.157Z,14.37
2018-09-02T23:21:40.950Z,14.42
2018-09-02T23:24:10.332Z,14.39
2018-09-02T23:26:40.272Z,14.37
2018-09-02T23:29:10.858Z,14.38
2018-09-02T23:31:41.430Z,14.39
2018-09-02T23:34:11.005Z,14.41
2018-09-02T23:36:40.369Z,14.39
2018-09-02T23:39:12.427Z,14.32
2018-09-02T23:41:42.011Z,14.41
2018-09-02T23:44:11.264Z,14.45
2018-09-02T23:46:41.232Z,14.54
2018-09-02T23:49:11.045Z,14.35
2018-09-02T23:51:41.678Z,14.33
2018-09-02T23:54:10.853Z,14.37
2018-09-02T23:56:40.270Z,14.35
2018-09-02T23:59:09.696Z,14.33
